Pamlico — WX6900 — position and weather

sailwx.info

Track history (hours):
 
Tides and Currents Weather Stations Pressure Air Temp Water Temp Dewpoint Dewpoint Depression Visibility Wind Speed Wind Dir Waves Ship Positions

Pamlico

Owner: PCS Phosphate, AURORA, NC. More information available from US FCC via Universal Licensing System and Coast Guard Vessel Documentation Center.

Last reported at 2015-Jun-08 10:33 UTC. Time now 2015-Jul-01 12:45 UTC.
Position N 36°50' W 076°17'.
Warning: this ship's position is 23 days out of date.

Length 30 m; draft 3 m.

MMSI: 367361220.

Date/timePositionNaut miles runAvg speedWind from/ knotsBaromVisibWave heightAir tempDewpointWater temp
2015-Jun-08 10:33N 36°50' W 076°17'0 0.0
2015-Jun-08 09:33N 36°50' W 076°17'0 0.0
2015-Jun-08 08:33N 36°50' W 076°17'  
2015-Jun-05 21:14N 34°59' W 076°41'4 6.0
2015-Jun-05 20:33N 34°55' W 076°40'5 4.7
2015-Jun-05 19:33N 34°51' W 076°41'5 5.1
2015-Jun-05 18:33N 34°46' W 076°41'3 2.6
2015-Jun-05 17:33N 34°43' W 076°42'0 0.1
2015-Jun-05 16:33N 34°43' W 076°42'0 0.0
2015-Jun-05 15:33N 34°43' W 076°42'0 0.0
2015-Jun-05 14:33N 34°43' W 076°42'0 0.0
2015-Jun-05 13:33N 34°43' W 076°42'0 0.0
2015-Jun-05 12:33N 34°43' W 076°42'0 0.0
2015-Jun-05 11:33N 34°43' W 076°42'1 0.6
2015-Jun-05 10:33N 34°43' W 076°41'0 0.0
2015-Jun-05 09:33N 34°43' W 076°41'0 0.0
2015-Jun-05 08:33N 34°43' W 076°41'0 0.0
2015-Jun-05 07:33N 34°43' W 076°41'0 0.0
2015-Jun-05 06:33N 34°43' W 076°41'0 0.0
2015-Jun-05 05:33N 34°43' W 076°41'0 0.0
2015-Jun-05 04:33N 34°43' W 076°41'0 0.0
2015-Jun-05 03:33N 34°43' W 076°41'3 3.3
2015-Jun-05 02:33N 34°46' W 076°41'8 6.5
2015-Jun-05 01:22N 34°54' W 076°41'  
2015-Jun-01 21:33N 34°57' W 076°40'5 5.6
2015-Jun-01 20:33N 34°52' W 076°41'6 6.0
2015-Jun-01 19:33N 34°46' W 076°41'3 2.6
2015-Jun-01 18:33N 34°43' W 076°42'3 3.0
2015-Jun-01 17:33N 34°46' W 076°41'6 6.2
2015-Jun-01 16:33N 34°53' W 076°42'5 5.1
2015-Jun-01 15:31N 34°58' W 076°41'  
2015-May-30 04:32N 34°58' W 076°42'5 5.6
2015-May-30 03:33N 34°53' W 076°41'7 6.5
2015-May-30 02:33N 34°47' W 076°41'3 3.2
2015-May-30 01:33N 34°43' W 076°42'0 0.0
2015-May-30 00:33N 34°43' W 076°42'3 3.0
2015-May-29 23:33N 34°46' W 076°41'5 5.0
2015-May-29 22:33N 34°51' W 076°41'5 4.6
2015-May-29 21:33N 34°55' W 076°39'  
Track history (hours):
 
Tides and Currents Weather Stations Pressure Air Temp Water Temp Dewpoint Dewpoint Depression Visibility Wind Speed Wind Dir Waves Ship Positions

Pamlico

Owner: PCS Phosphate, AURORA, NC. More information available from US FCC via Universal Licensing System and Coast Guard Vessel Documentation Center.

Last reported at 2015-Jun-08 10:33 UTC. Time now 2015-Jul-01 12:45 UTC.
Position N 36°50' W 076°17'.
Warning: this ship's position is 23 days out of date.

Length 30 m; draft 3 m.

MMSI: 367361220.

Date/timePositionNaut miles runAvg speedWind from/ knotsBaromVisibWave heightAir tempDewpointWater temp
2015-Jun-08 10:33N 36°50' W 076°17'0 0.0
2015-Jun-08 09:33N 36°50' W 076°17'0 0.0
2015-Jun-08 08:33N 36°50' W 076°17'  
2015-Jun-05 21:14N 34°59' W 076°41'4 6.0
2015-Jun-05 20:33N 34°55' W 076°40'5 4.7
2015-Jun-05 19:33N 34°51' W 076°41'5 5.1
2015-Jun-05 18:33N 34°46' W 076°41'3 2.6
2015-Jun-05 17:33N 34°43' W 076°42'0 0.1
2015-Jun-05 16:33N 34°43' W 076°42'0 0.0
2015-Jun-05 15:33N 34°43' W 076°42'0 0.0
2015-Jun-05 14:33N 34°43' W 076°42'0 0.0
2015-Jun-05 13:33N 34°43' W 076°42'0 0.0
2015-Jun-05 12:33N 34°43' W 076°42'0 0.0
2015-Jun-05 11:33N 34°43' W 076°42'1 0.6
2015-Jun-05 10:33N 34°43' W 076°41'0 0.0
2015-Jun-05 09:33N 34°43' W 076°41'0 0.0
2015-Jun-05 08:33N 34°43' W 076°41'0 0.0
2015-Jun-05 07:33N 34°43' W 076°41'0 0.0
2015-Jun-05 06:33N 34°43' W 076°41'0 0.0
2015-Jun-05 05:33N 34°43' W 076°41'0 0.0
2015-Jun-05 04:33N 34°43' W 076°41'0 0.0
2015-Jun-05 03:33N 34°43' W 076°41'3 3.3
2015-Jun-05 02:33N 34°46' W 076°41'8 6.5
2015-Jun-05 01:22N 34°54' W 076°41'  
2015-Jun-01 21:33N 34°57' W 076°40'5 5.6
2015-Jun-01 20:33N 34°52' W 076°41'6 6.0
2015-Jun-01 19:33N 34°46' W 076°41'3 2.6
2015-Jun-01 18:33N 34°43' W 076°42'3 3.0
2015-Jun-01 17:33N 34°46' W 076°41'6 6.2
2015-Jun-01 16:33N 34°53' W 076°42'5 5.1
2015-Jun-01 15:31N 34°58' W 076°41'  
2015-May-30 04:32N 34°58' W 076°42'5 5.6
2015-May-30 03:33N 34°53' W 076°41'7 6.5
2015-May-30 02:33N 34°47' W 076°41'3 3.2
2015-May-30 01:33N 34°43' W 076°42'0 0.0
2015-May-30 00:33N 34°43' W 076°42'3 3.0
2015-May-29 23:33N 34°46' W 076°41'5 5.0
2015-May-29 22:33N 34°51' W 076°41'5 4.6
2015-May-29 21:33N 34°55' W 076°39'  

Dump ship's entire track history